Metar z połowy godziny Komunikat METAR ze strony awiacja.imgw.pl Metar G00 EPKT METAR EPKT 271430Z VRB02KT 8000 BKN042 02/M01 Q0996 =